25 de setembro de 2022

Hora Código Clima Temp. Visibilidade Tecto Vento METAR/SPECI
1:00 da tarde
V
68 °F 9 mi - 220° 220° 8 kt METAR CZVL 251900Z AUTO 22008KT 9SM CLR 20/03 A3014 RMK SLP218 DENSITY ALT 3200FT
12:00 da tarde
V
64 °F 9 mi - 200° 200° 9 kt METAR CZVL 251800Z AUTO 20009KT 9SM CLR 18/03 A3015 RMK SLP224 DENSITY ALT 3000FT
11:00 da manhã
V
61 °F 9 mi - 220° 220° 11 kt METAR CZVL 251700Z AUTO 22011KT 9SM CLR 16/04 A3017 RMK SLP232 DENSITY ALT 2600FT
10:00 da manhã
V
54 °F 9 mi - 210° 210° 5 kt METAR CZVL 251600Z AUTO 21005KT 9SM SCT200 12/05 A3017 RMK SLP233
9:00 da manhã
V
48 °F 9 mi - 150° 150° 3 kt METAR CZVL 251500Z AUTO 15003KT 130V210 9SM FEW150 SCT210 09/04 A3019 RMK SLP241
8:00 da manhã
V
48 °F 9 mi 17.000 ft 190° 190° 7 kt METAR CZVL 251400Z AUTO 19007KT 9SM BKN170 BKN210 09/04 A3017 RMK SLP235
7:00 da manhã
V
37 °F 9 mi 21.000 ft Var 000° 0 kt METAR CZVL 251300Z AUTO 00000KT 9SM OVC210 03/02 A3019 RMK SLP242
6:00 da manhã
V
34 °F 9 mi - 180° 180° 5 kt METAR CZVL 251200Z AUTO 18005KT 9SM SCT210 01/01 A3020 RMK SLP244
5:00 da manhã
V
36 °F 9 mi - Var 000° 0 kt METAR CZVL 251100Z AUTO 00000KT 9SM FEW210 02/01 A3022 RMK SLP249
4:00 da manhã
V
37 °F 9 mi - Var 000° 0 kt METAR CZVL 251000Z AUTO 00000KT 9SM SCT110 03/02 A3023 RMK SLP252
3:00 da manhã
V
37 °F 9 mi - Var Var 2 kt METAR CZVL 250900Z AUTO VRB02KT 9SM CLR 03/03 A3022 RMK SLP248
2:00 da manhã
V
39 °F 9 mi - Var 000° 0 kt METAR CZVL 250800Z AUTO 00000KT 9SM CLR 04/01 A3021 RMK SLP243
1:00 da manhã
V
41 °F 9 mi - Var Var 3 kt METAR CZVL 250700Z AUTO VRB03KT 9SM CLR 05/02 A3020 RMK SLP242
12:00 da manhã
V
41 °F 9 mi - Var 000° 0 kt METAR CZVL 250600Z AUTO 00000KT 9SM CLR 05/02 A3019 RMK SLP240

24 de setembro de 2022

Hora Código Clima Temp. Visibilidade Tecto Vento METAR/SPECI
11:00 da tarde
V
43 °F 9 mi - Var Var 2 kt METAR CZVL 250500Z AUTO VRB02KT 9SM CLR 06/03 A3019 RMK SLP238
10:00 da tarde
V
43 °F 9 mi - Var Var 2 kt METAR CZVL 250400Z AUTO VRB02KT 9SM CLR 06/02 A3018 RMK SLP236
9:00 da tarde
V
46 °F 9 mi - Var 000° 0 kt METAR CZVL 250300Z AUTO 00000KT 9SM CLR 08/03 A3015 RMK SLP226
8:00 da tarde
V
50 °F 9 mi - 220° 220° 2 kt METAR CZVL 250200Z AUTO 22002KT 9SM CLR 10/02 A3013 RMK PRESRR SLP217
7:00 da tarde
V
61 °F 9 mi - 310° 310° 3 kt METAR CZVL 250100Z AUTO 31003KT 9SM CLR 16/02 A3011 RMK SLP207 DENSITY ALT 2700FT
6:00 da tarde
V
64 °F 9 mi - 320° 320° 9 kt METAR CZVL 250000Z AUTO 32009KT 9SM CLR 18/01 A3010 RMK SLP204 DENSITY ALT 2900FT
5:00 da tarde
V
64 °F 9 mi - 320° 320° 12 - 18 kt METAR CZVL 242300Z AUTO 32012G18KT 9SM CLR 18/01 A3010 RMK SLP203 DENSITY ALT 3000FT
4:00 da tarde
V
64 °F 9 mi - 320° 320° 16 - 25 kt METAR CZVL 242200Z AUTO 32016G25KT 9SM CLR 18/01 A3010 RMK SLP201 DENSITY ALT 3000FT
3:00 da tarde
V
64 °F 9 mi - 280° 280° 14 - 21 kt METAR CZVL 242100Z AUTO 28014G21KT 9SM CLR 18/00 A3009 RMK SLP197 DENSITY ALT 3000FT
2:00 da tarde
V
64 °F 9 mi - 300° 300° 16 - 27 kt METAR CZVL 242000Z AUTO 30016G27KT 9SM CLR 18/01 A3008 RMK SLP193 DENSITY ALT 3000FT
1:00 da tarde
V
63 °F 9 mi - 300° 300° 16 - 27 kt METAR CZVL 241900Z AUTO 30016G27KT 9SM CLR 17/01 A3007 RMK SLP191 DENSITY ALT 2900FT
12:00 da tarde
V
61 °F 9 mi - 310° 310° 25 - 32 kt METAR CZVL 241800Z AUTO 31025G32KT 9SM CLR 16/00 A3005 RMK SLP184 DENSITY ALT 2800FT
11:00 da manhã
V
61 °F 9 mi - 300° 300° 22 - 32 kt METAR CZVL 241700Z AUTO 30022G32KT 9SM CLR 16/01 A3004 RMK SLP180 DENSITY ALT 2800FT
10:00 da manhã
V
59 °F 9 mi - 290° 290° 14 - 23 kt METAR CZVL 241600Z AUTO 29014G23KT 9SM CLR 15/02 A3002 RMK SLP176 DENSITY ALT 2700FT
9:00 da manhã
V
55 °F 9 mi - 280° 280° 12 - 20 kt METAR CZVL 241500Z AUTO 28012G20KT 9SM CLR 13/03 A3000 RMK SLP170 DENSITY ALT 2500FT
8:00 da manhã
V
54 °F 9 mi 11.000 ft 270° 270° 12 - 18 kt METAR CZVL 241400Z AUTO 27012G18KT 9SM BKN110 12/03 A2996 RMK SLP156 DENSITY ALT 2400FT
7:00 da manhã
V
52 °F 9 mi 10.000 ft 240° 240° 8 kt METAR CZVL 241300Z AUTO 24008KT 9SM OVC100 11/04 A2994 RMK SLP152 DENSITY ALT 2300FT
6:00 da manhã
V
50 °F 9 mi 10.000 ft 240° 240° 6 kt METAR CZVL 241200Z AUTO 24006KT 9SM OVC100 10/05 A2993 RMK SLP142
5:00 da manhã
V
46 °F 9 mi - 230° 230° 7 kt METAR CZVL 241100Z AUTO 23007KT 9SM FEW130 08/04 A2991 RMK SLP137
4:00 da manhã
V
46 °F 9 mi - 240° 240° 6 kt METAR CZVL 241000Z AUTO 24006KT 9SM CLR 08/04 A2989 RMK SLP131
3:00 da manhã
V
54 °F 9 mi 8.600 ft 260° 260° 3 kt METAR CZVL 240900Z AUTO 26003KT 9SM BKN086 BKN120 BKN140 12/04 A2989 RMK SLP127 DENSITY ALT 2500FT
2:00 da manhã
V
54 °F 9 mi 9.100 ft 270° 270° 3 kt METAR CZVL 240800Z AUTO 27003KT 9SM OVC091 12/04 A2987 RMK SLP121 DENSITY ALT 2600FT
1:00 da manhã
V
55 °F 9 mi 9.100 ft 280° 280° 4 kt METAR CZVL 240700Z AUTO 28004KT 9SM OVC091 13/04 A2986 RMK SLP118 DENSITY ALT 2600FT
12:00 da manhã
V
55 °F 9 mi 9.600 ft 280° 280° 6 kt METAR CZVL 240600Z AUTO 28006KT 9SM OVC096 13/04 A2985 RMK SLP117 DENSITY ALT 2700FT

23 de setembro de 2022

Hora Código Clima Temp. Visibilidade Tecto Vento METAR/SPECI
11:00 da tarde
V
57 °F 9 mi 9.600 ft 270° 270° 7 kt METAR CZVL 240500Z AUTO 27007KT 9SM OVC096 14/04 A2984 RMK SLP111 DENSITY ALT 2800FT
10:00 da tarde
V
55 °F 9 mi 13.000 ft 260° 260° 5 kt METAR CZVL 240400Z AUTO 26005KT 9SM BKN130 BKN160 13/05 A2982 RMK SLP108 DENSITY ALT 2700FT
9:00 da tarde
V
52 °F 9 mi - 220° 220° 4 kt METAR CZVL 240300Z AUTO 22004KT 9SM CLR 11/06 A2981 RMK SLP106 DENSITY ALT 2500FT
8:09 da tarde
V
57 °F 9 mi - 260° 260° 6 kt METAR CZVL 240209Z AUTO 26006KT 9SM SCT076 SCT091 SCT110 14/06 A2980 RMK SLP100 DENSITY ALT 2800FT
7:58 da tarde
V
57 °F 9 mi 7.600 ft 260° 260° 6 kt METAR CZVL 240158Z AUTO 26006KT 9SM -RA BKN076 BKN092 14/07 A2980 RMK SLP098 DENSITY ALT 2900FT
7:00 da tarde
V
55 °F 9 mi 7.800 ft 210° 210° 3 kt METAR CZVL 240100Z AUTO 21003KT 9SM SCT060 BKN078 BKN091 13/11 A2978 RMK SLP097 DENSITY ALT 2700FT
6:59 da tarde
V
55 °F 9 mi 7.700 ft 210° 210° 3 kt METAR CZVL 240059Z AUTO 21003KT 9SM SCT060 BKN077 BKN091 13/10 A2978 RMK WSHFT AT 0028Z SLP095 DENSITY ALT 2700FT
6:35 da tarde
V
59 °F 9 mi 6.000 ft 290° 290° 11 - 16 kt METAR CZVL 240035Z AUTO 29011G16KT 9SM -RA BKN060 OVC078 15/08 A2980 RMK WSHFT AT 0028Z PRESRR SLP096 DENSITY ALT 3000FT
6:28 da tarde
V
61 °F 9 mi 6.000 ft 340° 340° 10 kt METAR CZVL 240028Z AUTO 34010KT 9SM -RA BKN060 BKN074 OVC090 16/08 A2978 RMK SLP090 DENSITY ALT 3000FT
6:00 da tarde
V
66 °F 9 mi 6.600 ft 220° 220° 5 kt METAR CZVL 240000Z AUTO 22005KT 9SM BKN066 OVC092 19/06 A2977 RMK SLP088 DENSITY ALT 3400FT
5:00 da tarde
V
68 °F 9 mi 6.600 ft 230° 230° 5 kt METAR CZVL 232300Z AUTO 23005KT 190V260 9SM BKN066 20/06 A2977 RMK SLP087 DENSITY ALT 3500FT
4:00 da tarde
V
66 °F 9 mi - 290° 290° 9 - 15 kt METAR CZVL 232200Z AUTO 29009G15KT 230V310 9SM CLR 19/06 A2977 RMK SLP088 DENSITY ALT 3500FT
3:00 da tarde
V
64 °F 9 mi - 270° 270° 9 - 15 kt METAR CZVL 232100Z AUTO 27009G15KT 230V290 9SM CLR 18/06 A2979 RMK SLP100 DENSITY ALT 3400FT
2:00 da tarde
V
64 °F 9 mi - 290° 290° 9 kt METAR CZVL 232000Z AUTO 29009KT 200V320 9SM CLR 18/05 A2980 RMK SLP101 DENSITY ALT 3300FT
1:00 da tarde
V
61 °F 9 mi - 210° 210° 8 kt METAR CZVL 231900Z AUTO 21008KT 9SM FEW091 16/08 A2980 RMK SLP105 DENSITY ALT 3100FT
12:00 da tarde
V
57 °F 9 mi 9.100 ft 240° 240° 5 kt METAR CZVL 231800Z AUTO 24005KT 9SM BKN091 14/07 A2981 RMK SLP103 DENSITY ALT 2900FT
11:00 da manhã
V
57 °F 9 mi 9.600 ft 270° 270° 6 kt METAR CZVL 231700Z AUTO 27006KT 9SM OVC096 14/06 A2980 RMK SLP102 DENSITY ALT 2900FT
10:00 da manhã
V
57 °F 9 mi - 270° 270° 5 kt METAR CZVL 231600Z AUTO 27005KT 9SM SCT100 SCT240 14/06 A2979 RMK SLP099 DENSITY ALT 2900FT
9:00 da manhã
V
57 °F 9 mi - 290° 290° 6 kt METAR CZVL 231500Z AUTO 29006KT 260V330 9SM FEW091 14/06 A2976 RMK SLP090 DENSITY ALT 2800FT
Dados mais antigos

Nós e terceiros acompanhamos seu comportamento na internet em nosso site com cookies. Se você continuar, nós assumimos que você concorda com nossa política de cookies. Saiba mais